Willow Run Airport
KYIP : now visible

Airfield :











YOU CAN JOIN US ON...

 
LOGIN :

Register | Disclaimer

   EN    FR    IT 

 









Legend :    VFR   Marginal VFR   IFR   Intensive IFR   Very Intensive IFR
Visi :
Ceiling :
>= 8 km
>= 3000ft
5 to 8 km
1000 to 3000 ft
1500m to 5 km
500 to 1000 ft
800 to 1500m
200 to 500 ft
< 800m
< 200 ft
Symbols :   Thunderstorms  Fog  Heavy snow  Heavy precipitations  Wind > 20 kt







- Airport Elevation : 716 ft
- IATA code : YIP


KYIP - Willow Run

CURRENT METAR :
  • 221753Z 13005KT 10SM FEW030 BKN055 OVC090 14/11 A3003 RMK AO2 SLP168 60030 T01440106 10144 20117 51001

EXPIRED METARs :
  • 221653Z 11009KT 10SM OVC100 14/10 A3003 RMK AO2 RAE36 SLP166 P0001 T01390100
  • 221553Z 11009KT 10SM -RA BKN095 OVC120 13/09 A3004 RMK AO2 SLP171 P0001 T01330094

TAF KYIP
Valid from the 22 at 18:00 until the 23 at 18:00 UTC


221730Z 2218/2318 13010KT P6SM SCT035 OVC090
FM221900 17008KT P6SM FEW030 SCT250
FM230900 20008KT P6SM SCT060 BKN120
TEMPO 2310/2313 3SM TSRA BKN025CB
FM231400 23017G26KT P6SM BKN025 OVC250
KZOB FIR / North America



MET'MAP, your aeronautical weather chart ! - Copyright ORBIFLY December 2007 - Disclaimer

ORBIFLY MET'MAP TEAM :

Programming & Development : Alexandra Zaïnal
Concept & Development : Baudouin d'Aumeries
Co-Development & Prog : Marc-Olivier Méhu
Technical & hardware support : Manuel Goepfert

Contact : metmap@orbifly.com




SOURCES & CREDITS :

   NOAA       Earth
Advisory